ETH318 HAAB-HKJK
Flight info
| Callsign | ETH318 |
|---|---|
| Flight time | 1h 30m |
| Altitude | 34000 |
| Route | SHALA2A SHALA UM308 RUDOL/N0486F330 UM308 LOTAS LOTAS4D |
| Aircraft | B77L/H-SDE1E2E3FGHIJ2J3J4J5M1RWXY/LB1D1 |
Departure
| Time | 2026-05-05 10:37 |
|---|---|
| Airport | Addis Ababa Bole International Airport (HAAB) |
Arrival
| Time | 2026-05-05 12:07 |
|---|---|
| Airport | Jomo Kenyatta International Airport (HKJK) |
| Time | Latitude | Longitude | Altitude | Speed | Heading |
|---|---|---|---|---|---|
| 2026-05-05 10:20 | 8.98084 | 38.79585 | 7627 ft | 0 kts | 165° |
| 2026-05-05 10:28 | 8.98095 | 38.79582 | 7627 ft | 4 kts | 165° |
| 2026-05-05 10:28 | 8.98120 | 38.79577 | 7631 ft | 4 kts | 192° |
| 2026-05-05 10:28 | 8.98140 | 38.79590 | 7632 ft | 4 kts | 243° |
| 2026-05-05 10:29 | 8.98147 | 38.79606 | 7630 ft | 1 kts | 252° |
| 2026-05-05 10:31 | 8.98129 | 38.79545 | 7628 ft | 23 kts | 254° |
| 2026-05-05 10:31 | 8.98090 | 38.79410 | 7627 ft | 19 kts | 253° |
| 2026-05-05 10:32 | 8.98054 | 38.79286 | 7627 ft | 18 kts | 253° |
| 2026-05-05 10:32 | 8.98024 | 38.79162 | 7626 ft | 18 kts | 257° |
| 2026-05-05 10:32 | 8.97991 | 38.79040 | 7626 ft | 18 kts | 254° |
| 2026-05-05 10:32 | 8.97958 | 38.78922 | 7626 ft | 18 kts | 253° |
| 2026-05-05 10:33 | 8.97920 | 38.78802 | 7626 ft | 18 kts | 252° |
| 2026-05-05 10:33 | 8.97848 | 38.78735 | 7625 ft | 15 kts | 179° |
| 2026-05-05 10:33 | 8.97752 | 38.78766 | 7624 ft | 15 kts | 159° |
| 2026-05-05 10:33 | 8.97668 | 38.78794 | 7623 ft | 15 kts | 162° |
| 2026-05-05 10:34 | 8.97571 | 38.78793 | 7623 ft | 15 kts | 214° |
| 2026-05-05 10:34 | 8.97517 | 38.78653 | 7622 ft | 25 kts | 254° |
| 2026-05-05 10:34 | 8.97470 | 38.78486 | 7620 ft | 25 kts | 254° |
| 2026-05-05 10:34 | 8.97428 | 38.78338 | 7620 ft | 12 kts | 253° |
| 2026-05-05 10:35 | 8.97380 | 38.78271 | 7620 ft | 12 kts | 202° |
| 2026-05-05 10:35 | 8.97322 | 38.78296 | 7626 ft | 3 kts | 131° |
| 2026-05-05 10:35 | 8.97308 | 38.78312 | 7629 ft | 3 kts | 131° |
| 2026-05-05 10:35 | 8.97293 | 38.78327 | 7632 ft | 3 kts | 137° |
| 2026-05-05 10:36 | 8.97272 | 38.78346 | 7634 ft | 9 kts | 137° |
| 2026-05-05 10:36 | 8.97262 | 38.78460 | 7638 ft | 27 kts | 73° |
| 2026-05-05 10:36 | 8.97353 | 38.78769 | 7635 ft | 82 kts | 73° |
| 2026-05-05 10:36 | 8.97598 | 38.79625 | 7629 ft | 170 kts | 74° |
| 2026-05-05 10:37 | 8.98010 | 38.80940 | 7977 ft | 207 kts | 73° |
| 2026-05-05 10:37 | 8.98414 | 38.82317 | 9061 ft | 203 kts | 73° |
| 2026-05-05 10:37 | 8.98794 | 38.83695 | 9958 ft | 208 kts | 76° |
| 2026-05-05 10:37 | 8.99182 | 38.85196 | 10372 ft | 234 kts | 75° |
| 2026-05-05 10:38 | 8.99492 | 38.86830 | 11024 ft | 243 kts | 92° |
| 2026-05-05 10:38 | 8.98936 | 38.88439 | 11845 ft | 247 kts | 123° |
| 2026-05-05 10:38 | 8.97662 | 38.89656 | 12598 ft | 264 kts | 146° |
| 2026-05-05 10:38 | 8.95880 | 38.90259 | 13419 ft | 277 kts | 172° |
| 2026-05-05 10:39 | 8.93956 | 38.90018 | 14355 ft | 285 kts | 200° |
| 2026-05-05 10:39 | 8.92324 | 38.88871 | 15135 ft | 291 kts | 230° |
| 2026-05-05 10:39 | 8.91223 | 38.87158 | 15973 ft | 293 kts | 241° |
| 2026-05-05 10:39 | 8.90239 | 38.85348 | 16793 ft | 295 kts | 234° |
| 2026-05-05 10:40 | 8.88790 | 38.83855 | 17410 ft | 303 kts | 208° |
| 2026-05-05 10:40 | 8.86779 | 38.82997 | 17619 ft | 327 kts | 196° |
| 2026-05-05 10:40 | 8.84515 | 38.82281 | 17940 ft | 350 kts | 195° |
| 2026-05-05 10:40 | 8.82168 | 38.81551 | 18596 ft | 360 kts | 195° |
| 2026-05-05 10:41 | 8.79768 | 38.80783 | 19393 ft | 363 kts | 196° |
| 2026-05-05 10:41 | 8.77322 | 38.79980 | 19908 ft | 380 kts | 197° |
| 2026-05-05 10:41 | 8.74724 | 38.79113 | 20010 ft | 406 kts | 195° |
| 2026-05-05 10:41 | 8.71957 | 38.78177 | 20119 ft | 430 kts | 196° |
| 2026-05-05 10:42 | 8.66150 | 38.76203 | 21247 ft | 444 kts | 197° |
| 2026-05-05 10:42 | 8.63211 | 38.75205 | 21926 ft | 448 kts | 198° |
| 2026-05-05 10:42 | 8.60240 | 38.74200 | 22626 ft | 452 kts | 197° |
| 2026-05-05 10:43 | 8.57278 | 38.73200 | 23303 ft | 456 kts | 197° |
| 2026-05-05 10:43 | 8.54258 | 38.72181 | 23915 ft | 459 kts | 198° |
| 2026-05-05 10:43 | 8.51215 | 38.71153 | 24437 ft | 464 kts | 198° |
| 2026-05-05 10:43 | 8.48134 | 38.70112 | 24955 ft | 468 kts | 198° |
| 2026-05-05 10:44 | 8.45027 | 38.69063 | 25501 ft | 472 kts | 198° |
| 2026-05-05 10:44 | 8.41903 | 38.68008 | 26032 ft | 475 kts | 198° |
| 2026-05-05 10:44 | 8.38751 | 38.66943 | 26535 ft | 479 kts | 198° |
| 2026-05-05 10:44 | 8.35579 | 38.65872 | 27104 ft | 482 kts | 198° |
| 2026-05-05 10:45 | 8.32378 | 38.64791 | 27660 ft | 485 kts | 198° |
| 2026-05-05 10:45 | 8.29174 | 38.63709 | 28160 ft | 488 kts | 198° |
| 2026-05-05 10:45 | 8.25931 | 38.62615 | 28648 ft | 492 kts | 198° |
| 2026-05-05 10:45 | 8.22674 | 38.61516 | 29150 ft | 495 kts | 198° |
| 2026-05-05 10:46 | 8.19431 | 38.60422 | 29613 ft | 499 kts | 198° |
| 2026-05-05 10:46 | 8.16124 | 38.59306 | 30033 ft | 502 kts | 198° |
| 2026-05-05 10:46 | 8.12802 | 38.58186 | 30459 ft | 504 kts | 198° |
| 2026-05-05 10:46 | 8.09492 | 38.57070 | 31073 ft | 501 kts | 198° |
| 2026-05-05 10:47 | 8.06192 | 38.55957 | 31706 ft | 498 kts | 198° |
| 2026-05-05 10:47 | 8.02919 | 38.54854 | 32288 ft | 496 kts | 198° |
| 2026-05-05 10:47 | 7.99646 | 38.53751 | 32846 ft | 496 kts | 198° |
| 2026-05-05 10:47 | 7.96373 | 38.52648 | 33408 ft | 495 kts | 198° |
| 2026-05-05 10:48 | 7.93109 | 38.51548 | 33908 ft | 494 kts | 198° |
| 2026-05-05 10:48 | 7.87692 | 38.49723 | 33919 ft | 493 kts | 198° |
| 2026-05-05 10:49 | 7.81172 | 38.47528 | 33912 ft | 493 kts | 198° |
| 2026-05-05 10:49 | 7.74658 | 38.45335 | 33921 ft | 494 kts | 198° |
| 2026-05-05 10:50 | 7.68161 | 38.43148 | 33916 ft | 494 kts | 198° |
| 2026-05-05 10:50 | 7.61640 | 38.40955 | 33916 ft | 494 kts | 198° |
| 2026-05-05 10:51 | 7.55124 | 38.38763 | 33916 ft | 493 kts | 198° |
| 2026-05-05 10:51 | 7.48612 | 38.36573 | 33921 ft | 493 kts | 198° |
| 2026-05-05 10:52 | 7.42035 | 38.34623 | 33921 ft | 492 kts | 195° |
| 2026-05-05 10:52 | 7.35408 | 38.32888 | 33925 ft | 492 kts | 194° |
| 2026-05-05 10:53 | 7.28824 | 38.31153 | 33927 ft | 492 kts | 195° |
| 2026-05-05 10:53 | 7.22216 | 38.29369 | 33933 ft | 492 kts | 195° |
| 2026-05-05 10:54 | 7.15597 | 38.27567 | 33930 ft | 492 kts | 195° |
| 2026-05-05 10:54 | 7.08991 | 38.25769 | 33935 ft | 492 kts | 195° |
| 2026-05-05 10:55 | 7.02385 | 38.23973 | 33940 ft | 491 kts | 195° |
| 2026-05-05 10:55 | 6.95853 | 38.22200 | 33940 ft | 491 kts | 195° |
| 2026-05-05 10:56 | 6.89245 | 38.20406 | 33939 ft | 491 kts | 195° |
| 2026-05-05 10:56 | 6.82681 | 38.18624 | 33935 ft | 491 kts | 195° |
| 2026-05-05 10:57 | 6.76068 | 38.16830 | 33939 ft | 492 kts | 195° |
| 2026-05-05 10:57 | 6.69455 | 38.15036 | 33941 ft | 493 kts | 195° |
| 2026-05-05 10:58 | 6.62825 | 38.13238 | 33941 ft | 493 kts | 195° |
| 2026-05-05 10:58 | 6.56194 | 38.11440 | 33945 ft | 493 kts | 195° |
| 2026-05-05 10:59 | 6.49606 | 38.09652 | 33954 ft | 494 kts | 195° |
| 2026-05-05 10:59 | 6.42962 | 38.07841 | 33944 ft | 494 kts | 195° |
| 2026-05-05 11:00 | 6.36306 | 38.06025 | 33941 ft | 495 kts | 195° |
| 2026-05-05 11:00 | 6.29664 | 38.04214 | 33960 ft | 495 kts | 195° |
| 2026-05-05 11:01 | 6.23018 | 38.02404 | 33968 ft | 495 kts | 195° |
| 2026-05-05 11:01 | 6.16373 | 38.00594 | 33965 ft | 494 kts | 195° |
| 2026-05-05 11:02 | 6.09878 | 37.98825 | 33964 ft | 494 kts | 195° |
| 2026-05-05 11:02 | 6.03287 | 37.97031 | 33961 ft | 494 kts | 195° |
| 2026-05-05 11:03 | 5.96656 | 37.95226 | 33977 ft | 495 kts | 195° |
| 2026-05-05 11:03 | 5.89950 | 37.93401 | 33978 ft | 502 kts | 195° |
| 2026-05-05 11:04 | 5.83199 | 37.91564 | 33970 ft | 503 kts | 195° |
| 2026-05-05 11:04 | 5.76437 | 37.89725 | 33966 ft | 503 kts | 195° |
| 2026-05-05 11:05 | 5.69687 | 37.87890 | 33964 ft | 502 kts | 195° |
| 2026-05-05 11:05 | 5.62966 | 37.86063 | 33968 ft | 500 kts | 195° |
| 2026-05-05 11:06 | 5.56298 | 37.84251 | 33971 ft | 499 kts | 195° |
| 2026-05-05 11:06 | 5.55718 | 37.84093 | 33969 ft | 499 kts | 195° |
| 2026-05-05 11:07 | 5.52768 | 37.83292 | 33964 ft | 499 kts | 195° |
| 2026-05-05 11:07 | 5.46062 | 37.81469 | 33972 ft | 499 kts | 195° |
| 2026-05-05 11:08 | 5.39354 | 37.79648 | 33955 ft | 500 kts | 195° |
| 2026-05-05 11:08 | 5.32641 | 37.77825 | 33957 ft | 499 kts | 195° |
| 2026-05-05 11:09 | 5.25929 | 37.76003 | 33964 ft | 499 kts | 195° |
| 2026-05-05 11:09 | 5.19221 | 37.74182 | 33957 ft | 500 kts | 195° |
| 2026-05-05 11:10 | 5.12507 | 37.72360 | 33950 ft | 499 kts | 195° |
| 2026-05-05 11:10 | 5.05788 | 37.70537 | 33940 ft | 500 kts | 195° |
| 2026-05-05 11:11 | 4.99108 | 37.68725 | 33939 ft | 501 kts | 195° |
| 2026-05-05 11:11 | 4.92371 | 37.66898 | 33936 ft | 501 kts | 195° |
| 2026-05-05 11:12 | 4.85636 | 37.65072 | 33936 ft | 501 kts | 195° |
| 2026-05-05 11:12 | 4.78906 | 37.63247 | 33932 ft | 501 kts | 195° |
| 2026-05-05 11:13 | 4.72171 | 37.61422 | 33932 ft | 501 kts | 195° |
| 2026-05-05 11:13 | 4.65480 | 37.59609 | 33933 ft | 501 kts | 195° |
| 2026-05-05 11:14 | 4.58746 | 37.57785 | 33923 ft | 501 kts | 195° |
| 2026-05-05 11:14 | 4.52006 | 37.55959 | 33932 ft | 501 kts | 195° |
| 2026-05-05 11:15 | 4.45254 | 37.54131 | 33936 ft | 502 kts | 195° |
| 2026-05-05 11:15 | 4.38516 | 37.52306 | 33919 ft | 502 kts | 195° |
| 2026-05-05 11:16 | 4.31773 | 37.50480 | 33914 ft | 501 kts | 195° |
| 2026-05-05 11:16 | 4.25041 | 37.48658 | 33917 ft | 501 kts | 195° |
| 2026-05-05 11:17 | 4.18315 | 37.46838 | 33904 ft | 502 kts | 195° |
| 2026-05-05 11:17 | 4.11611 | 37.45024 | 33893 ft | 502 kts | 194° |
| 2026-05-05 11:18 | 4.04852 | 37.43195 | 33899 ft | 503 kts | 195° |
| 2026-05-05 11:18 | 3.98089 | 37.41357 | 33879 ft | 503 kts | 195° |
| 2026-05-05 11:19 | 3.91375 | 37.39397 | 33882 ft | 502 kts | 196° |
| 2026-05-05 11:19 | 3.84730 | 37.37402 | 33875 ft | 501 kts | 196° |
| 2026-05-05 11:20 | 3.78040 | 37.35405 | 33872 ft | 502 kts | 196° |
| 2026-05-05 11:20 | 3.71329 | 37.33419 | 33870 ft | 502 kts | 196° |
| 2026-05-05 11:21 | 3.64625 | 37.31441 | 33862 ft | 502 kts | 196° |
| 2026-05-05 11:21 | 3.57907 | 37.29459 | 33860 ft | 505 kts | 196° |
| 2026-05-05 11:22 | 3.51154 | 37.27467 | 33860 ft | 506 kts | 196° |
| 2026-05-05 11:22 | 3.44397 | 37.25472 | 33862 ft | 506 kts | 196° |
| 2026-05-05 11:23 | 3.37674 | 37.23488 | 33857 ft | 506 kts | 196° |
| 2026-05-05 11:23 | 3.30934 | 37.21499 | 33848 ft | 505 kts | 196° |
| 2026-05-05 11:24 | 3.24193 | 37.19510 | 33852 ft | 504 kts | 196° |
| 2026-05-05 11:24 | 3.17457 | 37.17523 | 33856 ft | 504 kts | 196° |
| 2026-05-05 11:25 | 3.10729 | 37.15539 | 33857 ft | 504 kts | 196° |
| 2026-05-05 11:25 | 3.03997 | 37.13554 | 33866 ft | 504 kts | 196° |
| 2026-05-05 11:26 | 2.98416 | 37.11908 | 33865 ft | 505 kts | 196° |
| 2026-05-05 11:26 | 2.90548 | 37.09588 | 33859 ft | 503 kts | 196° |
| 2026-05-05 11:27 | 2.83841 | 37.07612 | 33858 ft | 502 kts | 196° |
| 2026-05-05 11:27 | 2.77123 | 37.05631 | 33869 ft | 503 kts | 196° |
| 2026-05-05 11:28 | 2.70441 | 37.03662 | 33867 ft | 504 kts | 196° |
| 2026-05-05 11:28 | 2.63710 | 37.01679 | 33869 ft | 504 kts | 196° |
| 2026-05-05 11:29 | 2.57153 | 36.99747 | 33875 ft | 504 kts | 196° |
| 2026-05-05 11:29 | 2.50416 | 36.97762 | 33873 ft | 504 kts | 196° |
| 2026-05-05 11:30 | 2.43703 | 36.95784 | 33869 ft | 502 kts | 196° |
| 2026-05-05 11:30 | 2.37052 | 36.93825 | 33875 ft | 501 kts | 195° |
| 2026-05-05 11:31 | 2.30350 | 36.91851 | 33884 ft | 502 kts | 196° |
| 2026-05-05 11:31 | 2.23643 | 36.89876 | 33882 ft | 503 kts | 195° |
| 2026-05-05 11:32 | 2.16934 | 36.87900 | 33896 ft | 502 kts | 195° |
| 2026-05-05 11:32 | 2.10221 | 36.85924 | 33895 ft | 502 kts | 196° |
| 2026-05-05 11:33 | 2.03534 | 36.83954 | 33891 ft | 500 kts | 196° |
| 2026-05-05 11:33 | 1.96913 | 36.82006 | 33882 ft | 499 kts | 196° |
| 2026-05-05 11:34 | 1.90264 | 36.80049 | 33897 ft | 498 kts | 196° |
| 2026-05-05 11:34 | 1.83615 | 36.78092 | 33895 ft | 498 kts | 196° |
| 2026-05-05 11:35 | 1.76955 | 36.76131 | 33896 ft | 499 kts | 196° |
| 2026-05-05 11:35 | 1.71405 | 36.74498 | 33878 ft | 500 kts | 196° |
| 2026-05-05 11:36 | 1.64737 | 36.72536 | 33886 ft | 500 kts | 196° |
| 2026-05-05 11:36 | 1.56937 | 36.70240 | 33896 ft | 500 kts | 196° |
| 2026-05-05 11:37 | 1.50312 | 36.68291 | 33895 ft | 500 kts | 196° |
| 2026-05-05 11:37 | 1.44716 | 36.66644 | 33910 ft | 500 kts | 196° |
| 2026-05-05 11:38 | 1.38040 | 36.64680 | 33894 ft | 500 kts | 196° |
| 2026-05-05 11:38 | 1.31399 | 36.62727 | 33914 ft | 500 kts | 196° |
| 2026-05-05 11:39 | 1.24726 | 36.60763 | 33918 ft | 500 kts | 196° |
| 2026-05-05 11:39 | 1.18060 | 36.58802 | 33927 ft | 499 kts | 196° |
| 2026-05-05 11:40 | 1.11396 | 36.56842 | 33935 ft | 498 kts | 196° |
| 2026-05-05 11:40 | 1.04733 | 36.54881 | 33920 ft | 498 kts | 196° |
| 2026-05-05 11:41 | 0.98015 | 36.53268 | 33922 ft | 497 kts | 181° |
| 2026-05-05 11:41 | 0.91187 | 36.53549 | 33949 ft | 495 kts | 175° |
| 2026-05-05 11:42 | 0.84304 | 36.53999 | 33969 ft | 496 kts | 175° |
| 2026-05-05 11:42 | 0.77409 | 36.54372 | 33967 ft | 497 kts | 176° |
| 2026-05-05 11:43 | 0.70493 | 36.54682 | 33978 ft | 497 kts | 177° |
| 2026-05-05 11:43 | 0.63590 | 36.54974 | 33979 ft | 496 kts | 176° |
| 2026-05-05 11:44 | 0.56697 | 36.55267 | 34004 ft | 495 kts | 176° |
| 2026-05-05 11:44 | 0.49867 | 36.55563 | 34002 ft | 494 kts | 176° |
| 2026-05-05 11:45 | 0.42989 | 36.55862 | 34014 ft | 494 kts | 177° |
| 2026-05-05 11:45 | 0.36126 | 36.56161 | 34029 ft | 494 kts | 177° |
| 2026-05-05 11:46 | 0.29247 | 36.56459 | 34029 ft | 494 kts | 176° |
| 2026-05-05 11:46 | 0.22412 | 36.56756 | 34055 ft | 493 kts | 176° |
| 2026-05-05 11:46 | 0.19025 | 36.56902 | 34043 ft | 481 kts | 176° |
| 2026-05-05 11:47 | 0.15722 | 36.57044 | 34008 ft | 469 kts | 176° |
| 2026-05-05 11:47 | 0.12483 | 36.57184 | 33610 ft | 464 kts | 176° |
| 2026-05-05 11:47 | 0.09273 | 36.57324 | 33186 ft | 458 kts | 176° |
| 2026-05-05 11:47 | 0.06103 | 36.57462 | 32737 ft | 453 kts | 176° |
| 2026-05-05 11:48 | -0.00135 | 36.57733 | 31846 ft | 444 kts | 176° |
| 2026-05-05 11:48 | -0.03212 | 36.57867 | 31422 ft | 440 kts | 176° |
| 2026-05-05 11:48 | -0.06261 | 36.57999 | 30970 ft | 436 kts | 177° |
| 2026-05-05 11:49 | -0.09238 | 36.58129 | 30513 ft | 433 kts | 176° |
| 2026-05-05 11:49 | -0.12276 | 36.58261 | 30036 ft | 430 kts | 176° |
| 2026-05-05 11:49 | -0.15216 | 36.58389 | 29542 ft | 426 kts | 176° |
| 2026-05-05 11:49 | -0.18165 | 36.58517 | 29074 ft | 422 kts | 176° |
| 2026-05-05 11:50 | -0.21083 | 36.58644 | 28622 ft | 418 kts | 176° |
| 2026-05-05 11:50 | -0.23972 | 36.58768 | 28179 ft | 414 kts | 176° |
| 2026-05-05 11:50 | -0.26834 | 36.58892 | 27788 ft | 410 kts | 176° |
| 2026-05-05 11:50 | -0.29676 | 36.59016 | 27356 ft | 406 kts | 176° |
| 2026-05-05 11:51 | -0.32491 | 36.59138 | 26936 ft | 403 kts | 176° |
| 2026-05-05 11:51 | -0.35277 | 36.59259 | 26527 ft | 400 kts | 176° |
| 2026-05-05 11:51 | -0.38044 | 36.59379 | 26138 ft | 397 kts | 176° |
| 2026-05-05 11:51 | -0.40796 | 36.59498 | 25727 ft | 394 kts | 175° |
| 2026-05-05 11:52 | -0.43528 | 36.59617 | 25307 ft | 392 kts | 176° |
| 2026-05-05 11:52 | -0.46252 | 36.59735 | 24901 ft | 390 kts | 175° |
| 2026-05-05 11:52 | -0.48958 | 36.59854 | 24483 ft | 389 kts | 176° |
| 2026-05-05 11:52 | -0.51657 | 36.59971 | 24096 ft | 388 kts | 176° |
| 2026-05-05 11:53 | -0.54349 | 36.60088 | 23682 ft | 386 kts | 176° |
| 2026-05-05 11:53 | -0.57029 | 36.60204 | 23215 ft | 385 kts | 175° |
| 2026-05-05 11:53 | -0.59700 | 36.60320 | 22788 ft | 382 kts | 175° |
| 2026-05-05 11:53 | -0.62344 | 36.60435 | 22392 ft | 380 kts | 176° |
| 2026-05-05 11:54 | -0.64978 | 36.60550 | 21997 ft | 378 kts | 175° |
| 2026-05-05 11:54 | -0.67602 | 36.60664 | 21590 ft | 376 kts | 176° |
| 2026-05-05 11:54 | -0.70181 | 36.60776 | 21233 ft | 379 kts | 176° |
| 2026-05-05 11:54 | -0.72834 | 36.60890 | 20793 ft | 384 kts | 176° |
| 2026-05-05 11:55 | -0.75494 | 36.61006 | 20398 ft | 385 kts | 176° |
| 2026-05-05 11:55 | -0.78175 | 36.61124 | 19993 ft | 386 kts | 176° |
| 2026-05-05 11:55 | -0.80866 | 36.61242 | 19561 ft | 388 kts | 176° |
| 2026-05-05 11:55 | -0.83570 | 36.61359 | 19146 ft | 390 kts | 176° |
| 2026-05-05 11:56 | -0.86287 | 36.61477 | 18716 ft | 392 kts | 176° |
| 2026-05-05 11:56 | -0.89017 | 36.61595 | 18260 ft | 394 kts | 176° |
| 2026-05-05 11:56 | -0.91766 | 36.61713 | 17823 ft | 398 kts | 177° |
| 2026-05-05 11:56 | -0.94542 | 36.61835 | 17328 ft | 401 kts | 177° |
| 2026-05-05 11:57 | -0.97327 | 36.61957 | 16885 ft | 400 kts | 177° |
| 2026-05-05 11:57 | -1.00092 | 36.62077 | 16451 ft | 399 kts | 176° |
| 2026-05-05 11:57 | -1.02868 | 36.62197 | 16020 ft | 399 kts | 177° |
| 2026-05-05 11:57 | -1.05634 | 36.62316 | 15593 ft | 398 kts | 177° |
| 2026-05-05 11:58 | -1.08384 | 36.62435 | 15153 ft | 387 kts | 177° |
| 2026-05-05 11:58 | -1.11018 | 36.62549 | 14729 ft | 370 kts | 177° |
| 2026-05-05 11:58 | -1.13602 | 36.62662 | 14337 ft | 372 kts | 177° |
| 2026-05-05 11:58 | -1.16203 | 36.62775 | 13917 ft | 375 kts | 177° |
| 2026-05-05 11:59 | -1.18816 | 36.62889 | 13469 ft | 377 kts | 177° |
| 2026-05-05 11:59 | -1.21448 | 36.63002 | 13041 ft | 378 kts | 177° |
| 2026-05-05 11:59 | -1.24045 | 36.63115 | 12624 ft | 379 kts | 176° |
| 2026-05-05 11:59 | -1.26678 | 36.63229 | 12196 ft | 379 kts | 176° |
| 2026-05-05 12:00 | -1.29312 | 36.63344 | 11784 ft | 378 kts | 175° |
| 2026-05-05 12:00 | -1.31882 | 36.63454 | 11360 ft | 362 kts | 175° |
| 2026-05-05 12:00 | -1.34348 | 36.63561 | 10972 ft | 348 kts | 175° |
| 2026-05-05 12:00 | -1.36708 | 36.63663 | 10673 ft | 330 kts | 176° |
| 2026-05-05 12:01 | -1.38925 | 36.63758 | 10499 ft | 307 kts | 175° |
| 2026-05-05 12:01 | -1.40976 | 36.63986 | 10202 ft | 286 kts | 159° |
| 2026-05-05 12:01 | -1.42631 | 36.64999 | 10235 ft | 280 kts | 133° |
| 2026-05-05 12:01 | -1.43815 | 36.66557 | 10264 ft | 289 kts | 117° |
| 2026-05-05 12:02 | -1.44567 | 36.68494 | 10289 ft | 304 kts | 106° |
| 2026-05-05 12:02 | -1.45152 | 36.70536 | 10274 ft | 306 kts | 103° |
| 2026-05-05 12:02 | -1.45443 | 36.72615 | 10236 ft | 305 kts | 86° |
| 2026-05-05 12:02 | -1.44889 | 36.74647 | 10021 ft | 303 kts | 65° |
| 2026-05-05 12:03 | -1.43865 | 36.76415 | 9700 ft | 284 kts | 56° |
| 2026-05-05 12:03 | -1.42729 | 36.77969 | 9329 ft | 271 kts | 54° |
| 2026-05-05 12:03 | -1.41633 | 36.79430 | 9086 ft | 253 kts | 54° |
| 2026-05-05 12:03 | -1.40642 | 36.80782 | 9073 ft | 235 kts | 55° |
| 2026-05-05 12:04 | -1.39728 | 36.82043 | 8991 ft | 217 kts | 55° |
| 2026-05-05 12:04 | -1.38885 | 36.83238 | 8769 ft | 203 kts | 56° |
| 2026-05-05 12:04 | -1.38105 | 36.84390 | 8353 ft | 198 kts | 56° |
| 2026-05-05 12:04 | -1.37299 | 36.85454 | 7822 ft | 185 kts | 53° |
| 2026-05-05 12:05 | -1.36518 | 36.86435 | 7271 ft | 176 kts | 53° |
| 2026-05-05 12:05 | -1.35802 | 36.87371 | 6889 ft | 160 kts | 56° |
| 2026-05-05 12:05 | -1.35187 | 36.88266 | 6327 ft | 155 kts | 59° |
| 2026-05-05 12:05 | -1.34582 | 36.89125 | 6001 ft | 147 kts | 56° |
| 2026-05-05 12:06 | -1.33971 | 36.89980 | 5899 ft | 163 kts | 53° |
| 2026-05-05 12:06 | -1.33256 | 36.90966 | 5651 ft | 175 kts | 54° |
| 2026-05-05 12:06 | -1.32553 | 36.91922 | 5372 ft | 163 kts | 54° |
| 2026-05-05 12:06 | -1.31943 | 36.92753 | 5340 ft | 134 kts | 54° |
| 2026-05-05 12:07 | -1.31483 | 36.93365 | 5317 ft | 71 kts | 53° |
| 2026-05-05 12:07 | -1.31315 | 36.93600 | 5314 ft | 40 kts | 56° |
| 2026-05-05 12:07 | -1.31187 | 36.93785 | 5311 ft | 16 kts | 58° |
| 2026-05-05 12:07 | -1.31236 | 36.93879 | 5311 ft | 17 kts | 142° |
| 2026-05-05 12:08 | -1.31331 | 36.93945 | 5313 ft | 17 kts | 144° |
| 2026-05-05 12:08 | -1.31435 | 36.93991 | 5310 ft | 17 kts | 197° |
| 2026-05-05 12:08 | -1.31509 | 36.93900 | 5311 ft | 17 kts | 234° |
| 2026-05-05 12:08 | -1.31578 | 36.93804 | 5312 ft | 17 kts | 234° |
| 2026-05-05 12:09 | -1.31647 | 36.93709 | 5313 ft | 17 kts | 233° |
| 2026-05-05 12:09 | -1.31711 | 36.93624 | 5316 ft | 14 kts | 233° |
| 2026-05-05 12:09 | -1.31770 | 36.93545 | 5316 ft | 14 kts | 233° |
| 2026-05-05 12:09 | -1.31806 | 36.93497 | 5325 ft | 14 kts | 233° |